Time;durP1;ratioP1;P1;durP2;ratioP2;P2;SDS_P1;SDS_P2;PMS_P1;PMS_P2;Temp;Humidity;BMP_temperature;BMP_pressure;BME280_temperature;BME280_humidity;BME280_pressure;Samples;Min_cycle;Max_cycle;Signal;HPM_P1;HPM_P2
2022/01/13 00:00:01;;;;;;;334.10;49.97;;;3.40;99.90;;;;;;4914589;29;20485;-87
2022/01/13 00:02:31;;;;;;;347.67;47.57;;;3.40;99.90;;;;;;4915145;29;20046;-87
2022/01/13 00:04:57;;;;;;;326.60;47.47;;;3.40;99.90;;;;;;4915412;29;20134;-87
2022/01/13 00:07:23;;;;;;;358.63;42.63;;;3.50;99.90;;;;;;4920290;29;20078;-87
2022/01/13 00:09:48;;;;;;;374.90;46.00;;;3.40;99.90;;;;;;4915984;29;20056;-87
2022/01/13 00:12:17;;;;;;;386.07;47.37;;;3.40;99.90;;;;;;4915231;29;20044;-87
2022/01/13 00:15:07;;;;;;;408.40;48.70;;;3.40;99.90;;;;;;4914709;29;20044;-87
2022/01/13 00:18:29;;;;;;;381.47;43.50;;;3.40;99.90;;;;;;4915311;29;20103;-87
2022/01/13 00:23:40;;;;;;;427.47;52.20;;;3.40;99.90;;;;;;4914316;29;20056;-87
2022/01/13 00:25:38;;;;;;;461.63;54.80;;;3.40;99.90;;;;;;4914905;29;20116;-87
2022/01/13 00:28:13;;;;;;;405.97;49.13;;;3.40;99.90;;;;;;4915250;29;20058;-87
2022/01/13 00:30:39;;;;;;;433.73;45.90;;;3.40;99.90;;;;;;4915256;29;20056;-87
2022/01/13 00:33:05;;;;;;;438.50;55.83;;;3.50;99.90;;;;;;4916580;29;20051;-87
2022/01/13 00:35:30;;;;;;;453.27;51.57;;;3.50;99.90;;;;;;4913998;29;20651;-87
2022/01/13 00:37:56;;;;;;;446.67;48.83;;;3.50;99.90;;;;;;4915008;29;20059;-87
2022/01/13 00:40:21;;;;;;;441.23;51.97;;;3.40;99.90;;;;;;4914891;29;20539;-87
2022/01/13 00:42:47;;;;;;;460.77;48.17;;;3.60;99.90;;;;;;4914668;29;20055;-87
2022/01/13 00:45:14;;;;;;;404.77;42.17;;;4.40;99.90;;;;;;4914963;29;20155;-87
2022/01/13 00:47:41;;;;;;;412.70;44.63;;;3.50;99.90;;;;;;4915113;29;20059;-87
2022/01/13 00:50:07;;;;;;;460.57;45.37;;;3.50;99.90;;;;;;4915415;29;20048;-87
2022/01/13 00:52:33;;;;;;;466.70;43.70;;;3.60;99.90;;;;;;4914857;29;20052;-87
2022/01/13 00:55:04;;;;;;;462.37;44.17;;;3.60;99.90;;;;;;4914933;29;20044;-87
2022/01/13 00:57:31;;;;;;;464.47;51.80;;;3.60;99.90;;;;;;4913809;29;20489;-87
2022/01/13 00:59:58;;;;;;;411.57;42.33;;;3.60;99.90;;;;;;4915079;29;20404;-87
2022/01/13 01:02:24;;;;;;;442.00;46.47;;;3.60;99.90;;;;;;4915942;29;20040;-87
2022/01/13 01:04:50;;;;;;;379.53;39.97;;;3.60;99.90;;;;;;4914496;29;20396;-87
2022/01/13 01:07:16;;;;;;;425.60;40.77;;;3.60;99.90;;;;;;4914608;29;20139;-87
2022/01/13 01:09:48;;;;;;;402.43;40.97;;;3.60;99.90;;;;;;4914741;29;20052;-87
2022/01/13 01:12:14;;;;;;;461.33;40.63;;;3.60;99.90;;;;;;4915421;29;20377;-87
2022/01/13 01:14:46;;;;;;;449.00;41.73;;;3.70;99.90;;;;;;4917954;29;20053;-86
2022/01/13 01:17:15;;;;;;;399.33;39.33;;;3.60;99.90;;;;;;4917164;29;20044;-88
2022/01/13 01:19:44;;;;;;;369.17;35.70;;;3.70;99.90;;;;;;4914206;29;20048;-87
2022/01/13 01:27:37;;;;;;;440.87;42.13;;;3.70;99.90;;;;;;4916358;29;20139;-87
2022/01/13 01:30:14;;;;;;;427.47;39.37;;;3.80;99.90;;;;;;4918345;29;20056;-87
2022/01/13 01:32:40;;;;;;;404.13;37.43;;;3.70;99.90;;;;;;4917809;29;20397;-87
2022/01/13 01:35:15;;;;;;;461.97;48.30;;;3.80;99.90;;;;;;4919984;29;20055;-87
2022/01/13 01:37:42;;;;;;;462.80;46.20;;;3.80;99.90;;;;;;4918350;29;20058;-87
2022/01/13 01:40:09;;;;;;;441.33;53.43;;;3.80;99.90;;;;;;4917769;29;20099;-87
2022/01/13 01:42:35;;;;;;;420.40;44.93;;;3.80;99.90;;;;;;4918039;29;20138;-87
2022/01/13 01:45:01;;;;;;;410.77;40.77;;;3.80;99.90;;;;;;4917918;29;20136;-87
2022/01/13 01:47:29;;;;;;;400.97;38.03;;;3.80;99.90;;;;;;4916864;29;20095;-87
2022/01/13 01:49:59;;;;;;;455.63;40.07;;;3.80;99.90;;;;;;4918164;29;20130;-87
2022/01/13 01:52:26;;;;;;;352.03;34.33;;;3.80;99.90;;;;;;4917856;29;20055;-87
2022/01/13 01:54:55;;;;;;;411.97;36.60;;;3.90;99.90;;;;;;4917215;29;20047;-87
2022/01/13 01:57:23;;;;;;;383.57;35.70;;;3.90;99.90;;;;;;4918286;29;20051;-87
2022/01/13 01:59:49;;;;;;;405.73;36.77;;;3.90;99.90;;;;;;4916880;29;20048;-86
2022/01/13 02:02:15;;;;;;;363.43;35.67;;;3.90;99.90;;;;;;4917748;29;20048;-87
2022/01/13 02:04:43;;;;;;;352.07;34.37;;;3.90;99.90;;;;;;4918036;29;20545;-87
2022/01/13 02:07:10;;;;;;;332.60;33.73;;;3.90;99.90;;;;;;4917183;29;20507;-87
2022/01/13 02:09:38;;;;;;;402.80;37.83;;;4.00;99.90;;;;;;4917552;29;20054;-87
2022/01/13 02:12:08;;;;;;;393.60;35.70;;;3.90;99.90;;;;;;4917692;29;20048;-87
2022/01/13 02:14:47;;;;;;;400.03;37.10;;;3.90;99.90;;;;;;4917034;29;20048;-87
2022/01/13 02:17:21;;;;;;;351.03;34.90;;;4.00;99.90;;;;;;4917279;29;20135;-87
2022/01/13 02:19:46;;;;;;;397.33;36.60;;;4.00;99.90;;;;;;4917438;29;20048;-87
2022/01/13 02:22:12;;;;;;;409.17;36.50;;;4.00;99.90;;;;;;4917347;29;20139;-87
2022/01/13 02:24:38;;;;;;;337.63;33.87;;;4.00;99.90;;;;;;4923755;29;20551;-87
2022/01/13 02:27:05;;;;;;;373.00;37.03;;;4.00;99.90;;;;;;4919112;29;20384;-87
2022/01/13 02:29:32;;;;;;;396.90;38.17;;;4.00;99.90;;;;;;4916715;29;20937;-88
2022/01/13 02:31:58;;;;;;;360.17;36.70;;;4.00;99.90;;;;;;4916844;29;20067;-88
2022/01/13 02:34:24;;;;;;;378.23;35.57;;;4.00;99.90;;;;;;4916981;29;20044;-88
2022/01/13 02:36:53;;;;;;;380.90;35.40;;;4.80;99.90;;;;;;4916607;29;20048;-87
2022/01/13 02:39:31;;;;;;;404.93;36.70;;;3.80;99.90;;;;;;4916652;29;20092;-87
2022/01/13 02:42:14;;;;;;;378.60;36.73;;;3.90;99.90;;;;;;4917020;29;20040;-88
2022/01/13 02:45:15;;;;;;;433.50;37.23;;;4.20;99.90;;;;;;4916907;29;20068;-88
2022/01/13 02:48:26;;;;;;;350.40;33.30;;;4.10;99.90;;;;;;4917998;29;20050;-88
2022/01/13 02:50:53;;;;;;;386.87;35.43;;;4.10;99.90;;;;;;4900550;29;20059;-88
2022/01/13 02:53:19;;;;;;;365.00;34.40;;;4.10;99.90;;;;;;4900993;29;20481;-89
2022/01/13 02:55:44;;;;;;;308.87;31.00;;;5.00;99.90;;;;;;4901954;29;20147;-88
2022/01/13 02:58:14;;;;;;;302.93;30.27;;;4.10;99.90;;;;;;4900471;29;20055;-88
2022/01/13 03:00:40;;;;;;;298.73;30.23;;;4.90;99.90;;;;;;4897082;29;20044;-88
2022/01/13 03:03:06;;;;;;;239.23;28.50;;;4.10;99.90;;;;;;4881281;29;20052;-88
2022/01/13 03:05:37;;;;;;;306.50;30.97;;;4.10;99.90;;;;;;4881424;29;20083;-88
2022/01/13 03:08:03;;;;;;;286.73;30.07;;;4.10;99.90;;;;;;4897962;29;20107;-88
2022/01/13 03:10:29;;;;;;;299.87;31.13;;;4.20;99.90;;;;;;4897900;29;20123;-88
2022/01/13 03:12:56;;;;;;;282.53;30.63;;;4.20;99.90;;;;;;4882036;29;20044;-88
2022/01/13 03:15:22;;;;;;;336.50;32.83;;;4.20;99.90;;;;;;4897596;29;20081;-88
2022/01/13 03:17:47;;;;;;;290.30;30.67;;;5.10;99.90;;;;;;4881290;29;20079;-88
2022/01/13 03:20:13;;;;;;;309.67;29.10;;;4.20;99.90;;;;;;4881747;29;20143;-89
2022/01/13 03:22:39;;;;;;;295.37;30.07;;;4.20;99.90;;;;;;4882113;29;20052;-88
2022/01/13 03:25:05;;;;;;;337.23;31.83;;;4.20;99.90;;;;;;4881270;29;20053;-88
2022/01/13 03:27:34;;;;;;;285.10;29.90;;;4.20;99.90;;;;;;4881775;29;20127;-88
2022/01/13 03:30:06;;;;;;;282.60;29.93;;;4.20;99.90;;;;;;4881527;29;20055;-88
2022/01/13 03:32:35;;;;;;;259.33;29.33;;;4.20;99.90;;;;;;4902079;29;20064;-88
2022/01/13 03:35:02;;;;;;;243.27;27.53;;;4.20;99.90;;;;;;4881480;29;20049;-88
2022/01/13 03:37:28;;;;;;;291.70;30.77;;;5.50;99.90;;;;;;4881364;29;20051;-88
2022/01/13 03:39:54;;;;;;;338.73;33.30;;;4.20;99.90;;;;;;4880741;29;20060;-88
2022/01/13 03:42:21;;;;;;;297.90;30.77;;;4.20;99.90;;;;;;4896843;29;20074;-88
2022/01/13 03:44:46;;;;;;;306.83;30.53;;;4.20;99.90;;;;;;4881713;29;20450;-88
2022/01/13 03:47:14;;;;;;;281.33;30.60;;;4.20;99.90;;;;;;4895993;29;20045;-88
2022/01/13 03:49:40;;;;;;;193.47;25.40;;;4.20;99.90;;;;;;4896231;29;20049;-88
2022/01/13 03:52:12;;;;;;;231.50;26.33;;;4.20;99.90;;;;;;4896854;29;20048;-87
2022/01/13 03:54:39;;;;;;;219.20;26.93;;;4.20;99.90;;;;;;4897087;29;20056;-88
2022/01/13 03:57:42;;;;;;;274.20;29.80;;;4.20;99.90;;;;;;4897031;29;20059;-88
2022/01/13 04:00:59;;;;;;;236.10;28.50;;;4.20;99.90;;;;;;4896683;29;20052;-88
2022/01/13 04:03:24;;;;;;;163.77;22.33;;;4.20;99.90;;;;;;4896678;29;20556;-88
2022/01/13 04:06:19;;;;;;;234.90;25.97;;;4.20;99.90;;;;;;4912493;29;20048;-88
2022/01/13 04:08:49;;;;;;;240.87;28.00;;;4.10;99.90;;;;;;4884711;29;20059;-88
2022/01/13 04:11:18;;;;;;;199.73;25.13;;;4.10;99.90;;;;;;4896515;29;20131;-87
2022/01/13 04:16:10;;;;;;;183.53;24.13;;;4.10;99.90;;;;;;4897033;29;20436;-88
2022/01/13 04:18:36;;;;;;;174.43;24.00;;;4.10;99.90;;;;;;4896488;29;20489;-87
2022/01/13 04:21:02;;;;;;;211.53;24.60;;;4.10;99.90;;;;;;4911767;29;20044;-88
2022/01/13 04:23:29;;;;;;;203.00;24.73;;;4.10;99.90;;;;;;4896128;29;20135;-87
2022/01/13 04:25:54;;;;;;;201.20;24.30;;;4.10;99.90;;;;;;4912519;29;20040;-88
2022/01/13 04:28:26;;;;;;;207.37;24.87;;;4.10;99.90;;;;;;4895431;29;20204;-88
2022/01/13 04:31:00;;;;;;;189.70;24.77;;;4.10;99.90;;;;;;4896732;29;20544;-88
2022/01/13 04:33:29;;;;;;;214.00;25.65;;;4.10;99.90;;;;;;4896309;29;20052;-87
2022/01/13 04:35:56;;;;;;;227.80;28.13;;;4.10;99.90;;;;;;4896829;29;20048;-87
2022/01/13 04:38:22;;;;;;;240.87;28.73;;;4.20;99.90;;;;;;4896518;29;20045;-89
2022/01/13 04:40:54;;;;;;;210.03;26.53;;;4.00;99.90;;;;;;4901590;29;20052;-87
2022/01/13 04:43:20;;;;;;;229.80;26.37;;;4.00;99.90;;;;;;4895350;29;20055;-88
2022/01/13 04:45:47;;;;;;;197.40;24.40;;;4.00;99.90;;;;;;4895995;29;20056;-87
2022/01/13 04:48:13;;;;;;;191.60;25.53;;;4.00;99.90;;;;;;4896419;29;20055;-87
2022/01/13 04:50:39;;;;;;;153.30;22.37;;;4.00;99.90;;;;;;4895949;29;20135;-86
2022/01/13 04:53:05;;;;;;;174.50;23.57;;;4.00;99.90;;;;;;4896061;29;20136;-88
2022/01/13 04:55:34;;;;;;;163.67;24.03;;;4.00;99.90;;;;;;4896493;29;20045;-87
2022/01/13 04:58:01;;;;;;;161.40;22.17;;;3.90;99.90;;;;;;4896098;29;20049;-87
2022/01/13 05:00:28;;;;;;;152.83;21.80;;;3.90;99.90;;;;;;4896520;29;20052;-87
2022/01/13 05:02:53;;;;;;;165.03;22.60;;;4.00;99.90;;;;;;4899055;29;20513;-87
2022/01/13 05:05:19;;;;;;;173.93;24.03;;;3.90;99.90;;;;;;4899435;29;20052;-87
2022/01/13 05:07:45;;;;;;;161.23;23.03;;;3.90;99.90;;;;;;4900846;29;20520;-87
2022/01/13 05:10:11;;;;;;;152.30;21.93;;;3.90;99.90;;;;;;4899277;29;20084;-87
2022/01/13 05:12:42;;;;;;;169.70;22.07;;;3.90;99.90;;;;;;4899806;29;20055;-87
2022/01/13 05:15:13;;;;;;;191.87;25.40;;;3.90;99.90;;;;;;4899829;29;20104;-88
2022/01/13 05:18:02;;;;;;;200.70;24.97;;;3.90;99.90;;;;;;4899413;29;20116;-88
2022/01/13 05:20:36;;;;;;;177.90;23.60;;;3.90;99.90;;;;;;4899612;29;20400;-88
2022/01/13 05:23:02;;;;;;;172.97;23.63;;;3.90;99.90;;;;;;4899861;29;20055;-87
2022/01/13 05:25:27;;;;;;;134.03;20.33;;;3.90;99.90;;;;;;4899242;29;20052;-88
2022/01/13 05:27:53;;;;;;;153.87;22.07;;;3.90;99.90;;;;;;4901024;29;20112;-87
2022/01/13 05:30:19;;;;;;;149.37;23.87;;;3.90;99.90;;;;;;4899505;29;20535;-88
2022/01/13 05:32:46;;;;;;;152.57;23.23;;;3.90;99.90;;;;;;4898875;29;20515;-88
2022/01/13 05:35:12;;;;;;;131.03;20.50;;;3.90;99.90;;;;;;4899198;29;20054;-87
2022/01/13 05:37:37;;;;;;;189.33;23.87;;;3.90;99.90;;;;;;4899259;29;20052;-87
2022/01/13 05:40:03;;;;;;;169.07;25.30;;;3.90;99.90;;;;;;4898419;29;20053;-87
2022/01/13 05:42:29;;;;;;;187.30;25.17;;;3.90;99.90;;;;;;4898898;29;20523;-87
2022/01/13 05:44:56;;;;;;;189.17;25.37;;;3.80;99.90;;;;;;4898377;29;20143;-87
2022/01/13 05:47:25;;;;;;;163.83;27.73;;;3.90;99.90;;;;;;4902252;29;20132;-88
2022/01/13 05:49:50;;;;;;;194.90;28.53;;;4.10;99.90;;;;;;4901308;29;20404;-88
2022/01/13 05:52:16;;;;;;;226.10;52.87;;;3.70;99.90;;;;;;4913585;29;20041;-88
2022/01/13 05:54:42;;;;;;;181.87;43.90;;;3.70;99.90;;;;;;4899375;29;20468;-87
2022/01/13 05:57:07;;;;;;;214.13;56.63;;;3.90;99.90;;;;;;4899306;29;20107;-88
2022/01/13 05:59:33;;;;;;;181.73;41.27;;;3.90;99.90;;;;;;4897813;29;20508;-88
2022/01/13 06:01:59;;;;;;;271.00;67.03;;;3.90;99.90;;;;;;4898997;29;20139;-88
2022/01/13 06:04:25;;;;;;;380.27;103.80;;;3.90;99.90;;;;;;4898593;29;20048;-88
2022/01/13 06:06:50;;;;;;;163.37;27.27;;;3.90;99.90;;;;;;4897867;29;20036;-88
2022/01/13 06:09:16;;;;;;;150.17;26.07;;;3.90;99.90;;;;;;4898798;29;20104;-88
2022/01/13 06:11:52;;;;;;;153.80;26.10;;;3.90;99.90;;;;;;4898992;29;20113;-87
2022/01/13 06:14:17;;;;;;;162.23;30.10;;;3.80;99.90;;;;;;4896973;29;20053;-88
2022/01/13 06:16:43;;;;;;;172.87;40.30;;;3.90;99.90;;;;;;4914695;29;20067;-87
2022/01/13 06:19:08;;;;;;;208.50;43.47;;;3.90;99.90;;;;;;4899511;29;20107;-87
2022/01/13 06:21:34;;;;;;;221.67;33.83;;;3.90;99.90;;;;;;4897571;29;20075;-88
2022/01/13 06:24:00;;;;;;;221.53;29.90;;;3.90;99.90;;;;;;4898758;29;20048;-88
2022/01/13 06:26:27;;;;;;;212.03;33.60;;;3.90;99.90;;;;;;4899397;29;20087;-87
2022/01/13 06:28:52;;;;;;;165.10;27.00;;;3.90;99.90;;;;;;4898000;29;20442;-88
2022/01/13 06:31:18;;;;;;;146.07;27.40;;;3.90;99.90;;;;;;4913515;29;20056;-89
2022/01/13 06:33:43;;;;;;;153.70;27.97;;;3.90;99.90;;;;;;4900906;29;20131;-88
2022/01/13 06:36:09;;;;;;;175.37;31.70;;;3.90;99.90;;;;;;4915588;29;20519;-88
2022/01/13 06:38:35;;;;;;;177.60;28.00;;;3.80;99.90;;;;;;4900328;29;20604;-88
2022/01/13 06:41:01;;;;;;;162.13;27.57;;;3.80;99.90;;;;;;4898319;29;20045;-88
2022/01/13 06:43:27;;;;;;;148.10;28.67;;;3.90;99.90;;;;;;4898067;29;20556;-87
2022/01/13 06:45:53;;;;;;;202.83;33.47;;;3.70;99.90;;;;;;4897727;29;20064;-87
2022/01/13 06:48:19;;;;;;;169.57;26.33;;;3.80;99.90;;;;;;4898549;29;20104;-88
2022/01/13 06:50:44;;;;;;;113.43;20.73;;;3.70;99.90;;;;;;4898447;29;20517;-88
2022/01/13 06:53:10;;;;;;;135.67;22.83;;;3.80;99.90;;;;;;4897730;29;20131;-88
2022/01/13 06:55:36;;;;;;;134.30;24.43;;;3.80;99.90;;;;;;4899459;29;20024;-87
2022/01/13 06:58:02;;;;;;;151.73;23.07;;;3.80;99.90;;;;;;4901565;29;20053;-87
2022/01/13 07:00:27;;;;;;;138.97;24.37;;;3.80;99.90;;;;;;4898555;29;20044;-87
2022/01/13 07:02:55;;;;;;;164.53;26.67;;;3.80;99.90;;;;;;4897369;29;20052;-88
2022/01/13 07:05:21;;;;;;;151.33;23.87;;;3.70;99.90;;;;;;4913609;29;20074;-88
2022/01/13 07:07:47;;;;;;;142.90;24.03;;;3.70;99.90;;;;;;4899033;29;20049;-88
2022/01/13 07:10:13;;;;;;;130.57;22.47;;;3.70;99.90;;;;;;4912269;29;20108;-87
2022/01/13 07:12:42;;;;;;;137.83;23.90;;;3.70;99.90;;;;;;4899189;29;20397;-87
2022/01/13 07:15:09;;;;;;;127.23;22.03;;;3.70;99.90;;;;;;4898929;29;20100;-88
2022/01/13 07:17:35;;;;;;;114.47;21.97;;;3.70;99.90;;;;;;4896645;29;20060;-88
2022/01/13 07:20:02;;;;;;;136.37;22.60;;;3.70;99.90;;;;;;4897278;29;20044;-87
2022/01/13 07:22:28;;;;;;;137.37;21.90;;;3.70;99.90;;;;;;4897175;29;20382;-87
2022/01/13 07:24:54;;;;;;;126.90;20.67;;;3.70;99.90;;;;;;4895730;29;20045;-87
2022/01/13 07:27:19;;;;;;;204.27;29.33;;;3.70;99.90;;;;;;4897461;29;20041;-88
2022/01/13 07:29:45;;;;;;;177.10;26.20;;;3.70;99.90;;;;;;4898649;29;20051;-87
2022/01/13 07:32:12;;;;;;;150.77;26.43;;;3.70;99.90;;;;;;4897005;29;20044;-87
2022/01/13 07:34:39;;;;;;;175.07;26.57;;;3.70;99.90;;;;;;4913253;29;20049;-87
2022/01/13 07:37:05;;;;;;;181.70;27.10;;;3.70;99.90;;;;;;4898429;29;20429;-88
2022/01/13 07:39:31;;;;;;;169.97;27.70;;;3.70;99.90;;;;;;4913224;29;20074;-93
2022/01/13 07:42:11;;;;;;;163.87;23.27;;;3.70;99.90;;;;;;4899712;29;20047;-96
2022/01/13 07:48:41;;;;;;;154.80;24.03;;;4.70;99.90;;;;;;4842945;29;20137;-94
2022/01/13 07:51:16;;;;;;;185.00;24.70;;;3.80;99.90;;;;;;4827695;29;20500;-96
2022/01/13 07:53:42;;;;;;;155.60;23.87;;;4.10;99.90;;;;;;4826341;29;20058;-93
2022/01/13 07:56:08;;;;;;;158.70;24.43;;;3.30;99.90;;;;;;4827256;29;20042;-94
2022/01/13 07:58:40;;;;;;;175.80;26.03;;;3.40;99.90;;;;;;4839495;29;20056;-95
2022/01/13 08:01:12;;;;;;;192.30;30.50;;;3.90;99.90;;;;;;4900786;29;20452;-93
2022/01/13 08:03:44;;;;;;;177.27;35.83;;;3.60;99.90;;;;;;4906218;23;20066;-92
2022/01/13 08:06:09;;;;;;;140.73;21.93;;;3.60;99.90;;;;;;4905591;29;20052;-91
2022/01/13 08:08:36;;;;;;;148.10;31.87;;;3.70;99.90;;;;;;4897372;29;20047;-90
2022/01/13 08:11:03;;;;;;;152.87;28.50;;;3.70;99.90;;;;;;4896662;29;20496;-90
2022/01/13 08:13:29;;;;;;;150.43;29.67;;;3.70;99.90;;;;;;4896839;29;20055;-90
2022/01/13 08:15:55;;;;;;;126.77;22.47;;;3.80;99.90;;;;;;4901475;29;20044;-90
2022/01/13 08:21:05;;;;;;;125.25;21.77;;;3.80;99.90;;;;;;4896547;29;20097;-91
2022/01/13 08:23:30;;;;;;;143.17;29.00;;;3.80;99.90;;;;;;4896712;29;20075;-91
2022/01/13 08:25:57;;;;;;;130.87;24.87;;;3.90;99.90;;;;;;4897039;29;20503;-89
2022/01/13 08:28:28;;;;;;;119.73;22.30;;;3.80;99.90;;;;;;4895413;29;20171;-90
2022/01/13 08:30:56;;;;;;;176.90;25.03;;;3.80;99.90;;;;;;4896998;29;20087;-90
2022/01/13 08:33:22;;;;;;;154.80;23.63;;;3.80;99.90;;;;;;4896814;29;20059;-92
2022/01/13 08:35:49;;;;;;;144.67;25.30;;;3.80;99.90;;;;;;4895819;29;20057;-91
2022/01/13 08:38:16;;;;;;;154.63;23.27;;;3.90;99.90;;;;;;4897219;29;20127;-91
2022/01/13 08:40:49;;;;;;;159.90;25.30;;;5.40;99.90;;;;;;4896278;29;20055;-93
2022/01/13 08:43:16;;;;;;;147.68;23.00;;;4.20;99.90;;;;;;4899120;29;20093;-92
2022/01/13 08:45:42;;;;;;;170.77;25.33;;;3.70;99.90;;;;;;4897895;29;20040;-93
2022/01/13 08:48:17;;;;;;;130.23;23.80;;;3.10;99.90;;;;;;4906530;23;22772;-95
2022/01/13 08:50:49;;;;;;;128.67;22.40;;;5.80;99.90;;;;;;4900665;29;20200;-95
2022/01/13 08:53:21;;;;;;;160.40;23.57;;;5.30;99.90;;;;;;4931903;23;20099;-91
2022/01/13 08:55:51;;;;;;;144.20;25.47;;;3.80;99.90;;;;;;4901564;29;20184;-96
2022/01/13 08:58:22;;;;;;;137.90;23.70;;;3.80;99.90;;;;;;4943720;23;20060;-93
2022/01/13 09:00:56;;;;;;;171.10;24.20;;;4.10;99.90;;;;;;4904671;23;20143;-93
2022/01/13 09:03:27;;;;;;;156.80;24.27;;;4.00;99.90;;;;;;4897703;29;20058;-94
2022/01/13 09:05:56;;;;;;;130.00;21.43;;;4.30;99.90;;;;;;4951934;23;20469;-94
2022/01/13 09:08:40;;;;;;;125.77;21.90;;;3.60;99.90;;;;;;4915541;29;20115;-95
2022/01/13 09:11:32;;;;;;;122.50;20.83;;;3.70;99.90;;;;;;4886279;29;20044;-95
2022/01/13 09:13:58;;;;;;;132.53;22.27;;;4.30;99.90;;;;;;4940771;23;20052;-85
2022/01/13 09:16:30;;;;;;;134.97;21.23;;;4.00;99.90;;;;;;4897724;29;20052;-90
2022/01/13 09:19:08;;;;;;;107.00;19.73;;;3.90;99.90;;;;;;4901786;29;20059;-89
2022/01/13 09:22:15;;;;;;;122.30;21.67;;;3.90;99.90;;;;;;4903568;29;20087;-92
2022/01/13 09:25:15;;;;;;;139.43;22.63;;;5.40;99.90;;;;;;4843881;29;20499;-94
2022/01/13 09:28:52;;;;;;;107.67;19.77;;;3.40;99.90;;;;;;4844080;29;20072;-95
2022/01/13 09:31:18;;;;;;;141.10;23.23;;;3.90;99.90;;;;;;4842500;29;20132;-94
2022/01/13 09:34:01;;;;;;;129.83;21.60;;;4.30;99.90;;;;;;4869383;29;20055;-93
2022/01/13 09:36:28;;;;;;;128.57;22.03;;;3.80;99.90;;;;;;4899481;29;20062;-93
2022/01/13 09:38:54;;;;;;;118.70;21.80;;;4.00;99.90;;;;;;4898752;29;20046;-92
2022/01/13 09:41:23;;;;;;;108.67;21.20;;;4.00;99.90;;;;;;4900195;29;20362;-92
2022/01/13 09:44:05;;;;;;;110.20;20.37;;;4.10;99.90;;;;;;4899529;29;20139;-91
2022/01/13 09:46:41;;;;;;;113.07;20.40;;;4.20;99.90;;;;;;4899539;29;20135;-92
2022/01/13 09:49:08;;;;;;;132.87;22.83;;;4.70;99.90;;;;;;4901436;29;20044;-92
2022/01/13 09:51:46;;;;;;;;;;;;;;;;;;;;;
2022/01/13 09:54:39;;;;;;;131.13;22.33;;;4.20;99.90;;;;;;4861263;29;20056;-92
2022/01/13 09:57:10;;;;;;;124.90;22.07;;;4.40;99.90;;;;;;4889936;29;20051;-92
2022/01/13 09:59:57;;;;;;;141.33;24.60;;;6.00;99.90;;;;;;4883402;29;20049;-91
2022/01/13 10:02:29;;;;;;;131.43;22.93;;;4.50;99.90;;;;;;4884235;29;20508;-92
2022/01/13 10:05:01;;;;;;;119.80;22.40;;;4.30;99.90;;;;;;4883858;29;20147;-90
2022/01/13 10:10:34;;;;;;;142.03;23.37;;;5.50;99.90;;;;;;4883671;29;20052;-92
2022/01/13 10:13:13;;;;;;;104.00;20.10;;;5.60;99.90;;;;;;4884186;29;20488;-93
2022/01/13 10:25:46;;;;;;;159.20;24.30;;;5.90;99.90;;;;;;4899006;29;20511;-90
2022/01/13 10:28:13;;;;;;;126.33;24.73;;;5.10;99.90;;;;;;4881393;29;20059;-90
2022/01/13 10:30:44;;;;;;;148.40;28.43;;;6.10;99.90;;;;;;4882117;29;20400;-90
2022/01/13 10:33:29;;;;;;;131.63;23.67;;;4.20;99.90;;;;;;4882816;29;20064;-91
2022/01/13 10:36:09;;;;;;;153.23;30.87;;;4.30;99.90;;;;;;4882922;29;20040;-91
2022/01/13 10:38:53;;;;;;;128.77;24.47;;;4.40;99.90;;;;;;4898488;29;20045;-92
2022/01/13 10:41:30;;;;;;;130.88;25.05;;;5.50;99.90;;;;;;4889713;29;20119;-92
2022/01/13 10:44:23;;;;;;;116.90;21.77;;;5.20;99.90;;;;;;4888077;29;20049;-91
2022/01/13 10:47:07;;;;;;;124.70;23.70;;;3.90;99.90;;;;;;4873428;29;20072;-92
2022/01/13 10:49:49;;;;;;;153.57;27.10;;;5.70;99.90;;;;;;4888090;29;20048;-91
2022/01/13 10:52:41;;;;;;;148.97;29.80;;;4.90;99.90;;;;;;4872302;29;20049;-92
2022/01/13 10:55:29;;;;;;;118.23;24.17;;;4.30;99.90;;;;;;4891916;29;20061;-91
2022/01/13 10:58:12;;;;;;;120.33;23.33;;;4.50;99.90;;;;;;4869169;29;20113;-91
2022/01/13 11:00:42;;;;;;;149.73;27.48;;;4.40;99.90;;;;;;4871994;29;20051;-91
2022/01/13 11:03:28;;;;;;;122.87;23.77;;;4.20;99.90;;;;;;4873139;29;20032;-91
2022/01/13 11:06:06;;;;;;;113.87;23.47;;;5.70;99.90;;;;;;4900217;29;20092;-91
2022/01/13 11:08:47;;;;;;;111.20;23.90;;;5.00;99.90;;;;;;4885009;29;20147;-92
2022/01/13 11:11:21;;;;;;;122.33;22.80;;;4.20;99.90;;;;;;4897851;29;20146;-91
2022/01/13 11:13:59;;;;;;;98.17;21.47;;;4.40;99.90;;;;;;4898143;29;20093;-91
2022/01/13 11:16:50;;;;;;;110.67;22.93;;;4.40;99.90;;;;;;4895210;29;20426;-90
2022/01/13 11:21:51;;;;;;;113.03;22.83;;;4.60;99.90;;;;;;4945892;23;20056;-90
2022/01/13 11:24:29;;;;;;;88.68;19.98;;;4.50;99.90;;;;;;4871101;29;20114;-91
2022/01/13 11:27:07;;;;;;;114.20;22.07;;;4.50;99.90;;;;;;4900144;29;20064;-91
2022/01/13 11:29:38;;;;;;;131.43;23.30;;;4.30;99.90;;;;;;4910781;29;20048;-93
2022/01/13 11:32:45;;;;;;;111.07;22.47;;;4.50;99.90;;;;;;4900974;29;20052;-92
2022/01/13 11:35:45;;;;;;;113.53;23.90;;;4.80;99.90;;;;;;4887488;29;20587;-90
2022/01/13 11:38:13;;;;;;;117.80;25.17;;;4.70;99.90;;;;;;4898963;29;20088;-89
2022/01/13 11:40:47;;;;;;;100.80;22.53;;;4.70;99.90;;;;;;4898986;29;20048;-89
2022/01/13 11:43:30;;;;;;;108.10;21.02;;;4.60;99.90;;;;;;4900402;29;20115;-88
2022/01/13 11:45:59;;;;;;;114.47;23.57;;;4.60;99.90;;;;;;4900325;29;20055;-90
2022/01/13 11:48:29;;;;;;;120.67;24.07;;;4.60;99.90;;;;;;4900139;29;20177;-89
2022/01/13 11:51:24;;;;;;;87.63;20.03;;;4.70;99.90;;;;;;4901068;29;20056;-91
2022/01/13 11:54:39;;;;;;;109.43;23.23;;;5.30;99.90;;;;;;4901578;29;20118;-94
2022/01/13 11:57:29;;;;;;;114.57;22.75;;;4.80;99.90;;;;;;4901689;29;20052;-95
2022/01/13 11:59:58;;;;;;;100.50;21.47;;;4.60;99.90;;;;;;4913225;29;20048;-94
2022/01/13 12:02:41;;;;;;;103.53;22.67;;;4.50;99.90;;;;;;4920366;29;20526;-89
2022/01/13 12:05:19;;;;;;;106.60;21.88;;;5.40;99.90;;;;;;4930602;29;20067;-92
2022/01/13 12:07:56;;;;;;;107.13;22.43;;;4.40;99.90;;;;;;4908619;29;20052;-88
2022/01/13 12:10:39;;;;;;;95.17;22.17;;;4.50;99.90;;;;;;4899760;29;20036;-93
2022/01/13 12:13:44;;;;;;;93.70;20.93;;;4.60;99.90;;;;;;4902117;29;20504;-90
2022/01/13 12:16:51;;;;;;;90.87;20.97;;;4.50;99.90;;;;;;4900264;29;20088;-92
2022/01/13 12:19:34;;;;;;;102.07;21.27;;;4.00;99.90;;;;;;4899616;29;20174;-91
2022/01/13 12:22:41;;;;;;;87.43;21.40;;;4.50;99.90;;;;;;4918023;29;20064;-94
2022/01/13 12:25:47;;;;;;;100.17;21.73;;;3.60;99.90;;;;;;4897172;23;20488;-88
2022/01/13 12:29:03;;;;;;;89.73;21.07;;;3.30;99.90;;;;;;4978355;23;20054;-93
2022/01/13 12:32:35;;;;;;;89.30;19.57;;;4.60;99.90;;;;;;4928881;29;20056;-92
2022/01/13 12:35:02;;;;;;;77.33;18.73;;;4.70;99.90;;;;;;4896678;29;20123;-92
2022/01/13 12:37:31;;;;;;;66.63;18.13;;;5.20;99.90;;;;;;4919848;29;20083;-93
2022/01/13 12:39:59;;;;;;;86.73;27.97;;;4.20;99.90;;;;;;4891456;29;20040;-91
2022/01/13 12:42:51;;;;;;;82.73;25.57;;;4.40;99.90;;;;;;4902947;29;20044;-92
2022/01/13 12:45:29;;;;;;;67.07;18.20;;;4.60;99.90;;;;;;4914875;29;20036;-91
2022/01/13 12:48:04;;;;;;;70.07;21.23;;;6.10;99.90;;;;;;4888618;29;20062;-92
2022/01/13 12:50:37;;;;;;;91.87;28.00;;;4.40;99.90;;;;;;4906147;29;20044;-91
2022/01/13 12:53:25;;;;;;;82.93;25.25;;;4.40;99.90;;;;;;4906343;29;20044;-88
2022/01/13 12:56:14;;;;;;;75.07;26.53;;;4.50;99.90;;;;;;4915346;29;20053;-95
2022/01/13 12:58:44;;;;;;;61.83;23.00;;;4.40;99.90;;;;;;4901295;29;20052;-92
2022/01/13 13:01:14;;;;;;;67.33;31.37;;;4.40;99.90;;;;;;4898774;29;20055;-92
2022/01/13 13:03:43;;;;;;;55.37;19.07;;;4.60;99.90;;;;;;4914332;29;20468;-91
2022/01/13 13:06:28;;;;;;;71.93;26.40;;;4.60;99.90;;;;;;4911655;29;20051;-92
2022/01/13 13:09:08;;;;;;;63.17;21.10;;;4.70;99.90;;;;;;4914499;29;20047;-91
2022/01/13 13:11:43;;;;;;;63.67;19.67;;;4.40;99.90;;;;;;4914680;29;20067;-90
2022/01/13 13:15:39;;;;;;;57.57;21.10;;;4.40;99.90;;;;;;4915043;29;20048;-90
2022/01/13 13:17:33;;;;;;;61.37;20.47;;;4.60;99.90;;;;;;4898038;29;20049;-91
2022/01/13 13:19:59;;;;;;;58.47;20.03;;;4.70;99.90;;;;;;4914638;29;20504;-91
2022/01/13 13:22:25;;;;;;;60.63;19.77;;;4.50;99.90;;;;;;4914164;29;20040;-90
2022/01/13 13:25:03;;;;;;;56.10;19.70;;;5.80;99.90;;;;;;4919144;29;20052;-91
2022/01/13 13:27:41;;;;;;;57.97;18.73;;;4.80;99.90;;;;;;4918780;29;20048;-91